Bartonsville, Vermont
Current Conditions -  °F | °C
As of 4:22 PM on Wednesday 26 Nov 2014 (Local Time) from KVSF Reporting Station
Light Snow Light Snow  
Wind Chill: -4°   Ceiling: 1300
Heat Index: -1°   Visibility: 1mi
Dew Point: -2°   Wind: 6mph
Humidity: 89%   Direction: 10°N
Pressure: 29.99"   Gusts: NA
Location:  43.2811°N, 72.6352°W
Report Text: KVSF 262122Z AUTO 01005KT 1SM -SN BR VV013 M01/M02 A2999 RMK AO2 PRESFR P0002 T10061022
Loading
Personal Weather Stations






























Interactive Weather Map New forecast layout! Learn more

10-Day Weather Forecast

Advertisements
Track Severe Weather on mobile